| time (UTC) | temp C | wind direction | speed KPH | gust KPH | rain 1hr cm | rain 24hr cm | rain mn cm | humidity % | barometer mb |
| 20260906071555 | 21 | 182 | 0.0 | 0.0 | 0.00 | 0.00 | 0.00 | 90 | 1008.7 |
| 20260906070113 | 21 | 182 | 0.0 | 0.0 | 0.00 | 0.00 | 0.00 | 90 | 1008.8 |
| 20260906064552 | 21 | 182 | 0.0 | 0.0 | 0.00 | 0.00 | 0.00 | 90 | 1009.1 |
| 20260906063050 | 21 | 182 | 0.0 | 0.0 | 0.00 | 0.00 | 0.00 | 90 | 1009.2 |
| 20260906061601 | 21 | 182 | 0.0 | 0.0 | 0.00 | 0.00 | 0.00 | 90 | 1009.4 |
| 20260906060047 | 21 | 182 | 0.0 | 0.0 | 0.00 | 0.00 | 0.00 | 90 | 1009.6 |
| 20260906054546 | 21 | 182 | 0.0 | 0.0 | 0.00 | 0.00 | 0.00 | 90 | 1009.8 |
| 20260906053050 | 21 | 169 | 0.0 | 0.0 | 0.00 | 0.00 | 0.00 | 90 | 1009.7 |
| 20260906051545 | 21 | 169 | 0.0 | 0.0 | 0.00 | 0.00 | 0.00 | 90 | 1009.9 |
| 20260906050104 | 21 | 169 | 0.0 | 0.0 | 0.00 | 0.00 | 0.00 | 89 | 1009.9 |
| 20260906044544 | 21 | 169 | 0.0 | 0.0 | 0.00 | 0.00 | 0.00 | 89 | 1010.0 |
| 20260906043050 | 21 | 169 | 0.0 | 0.0 | 0.00 | 0.00 | 0.00 | 89 | 1010.1 |
| 20260906041540 | 21 | 169 | 0.0 | 0.0 | 0.00 | 0.00 | 0.00 | 89 | 1010.1 |
| 20260906040048 | 21 | 169 | 0.0 | 0.0 | 0.00 | 0.00 | 0.00 | 89 | 1010.3 |
| 20260906034537 | 21 | 169 | 0.0 | 0.0 | 0.00 | 0.00 | 0.00 | 89 | 1010.4 |
| 20260906033038 | 21 | 169 | 0.0 | 0.0 | 0.00 | 0.00 | 0.00 | 89 | 1010.3 |
| 20260906031536 | 22 | 169 | 0.0 | 0.0 | 0.00 | 0.00 | 0.00 | 88 | 1010.3 |
| 20260906030036 | 22 | 169 | 0.0 | 0.0 | 0.00 | 0.00 | 0.00 | 88 | 1010.2 |
| 20260906024536 | 22 | 169 | 0.0 | 0.0 | 0.00 | 0.00 | 0.00 | 89 | 1010.2 |
| 20260906023044 | 22 | 169 | 0.0 | 0.0 | 0.00 | 0.00 | 0.00 | 88 | 1009.9 |
| 20260906021534 | 22 | 169 | 0.0 | 0.0 | 0.00 | 0.00 | 0.00 | 88 | 1009.8 |
| 20260906020033 | 22 | 169 | 0.0 | 0.0 | 0.00 | 0.00 | 0.00 | 88 | 1009.8 |
| 20260906014543 | 22 | 169 | 0.0 | 0.0 | 0.00 | 0.00 | 0.00 | 87 | 1009.7 |
| 20260906013034 | 22 | 169 | 1.6 | 0.0 | 0.00 | 0.00 | 0.00 | 87 | 1009.8 |
| 20260906011535 | 23 | 169 | 0.0 | 0.0 | 0.00 | 0.00 | 0.00 | 85 | 1009.5 |
| 20260906010031 | 23 | 169 | 0.0 | 0.0 | 0.00 | 0.00 | 0.00 | 83 | 1009.4 |
| 20260906004531 | 23 | 169 | 0.0 | 0.0 | 0.00 | 0.00 | 0.00 | 83 | 1009.6 |
| 20260906003031 | 24 | 169 | 0.0 | 0.0 | 0.00 | 0.00 | 0.00 | 82 | 1009.1 |
| 20260906001531 | 24 | 169 | 0.0 | 0.0 | 0.00 | 0.00 | 0.00 | 80 | 1008.9 |
| 20260906000030 | 25 | 169 | 0.0 | 0.0 | 0.00 | 0.00 | 0.00 | 79 | 1008.7 |
| 20260905234530 | 25 | 169 | 0.0 | 0.0 | 0.00 | 0.00 | 0.00 | 78 | 1008.6 |
| 20260905233029 | 26 | 169 | 1.6 | 0.0 | 0.00 | 0.00 | 0.00 | 78 | 1008.6 |
| 20260905231529 | 26 | 169 | 1.6 | 0.0 | 0.00 | 0.00 | 0.00 | 74 | 1008.3 |
| 20260905230028 | 27 | 288 | 1.6 | 0.0 | 0.00 | 0.00 | 0.00 | 73 | 1008.2 |
| 20260905224534 | 27 | 273 | 3.2 | 0.0 | 0.00 | 0.00 | 0.00 | 69 | 1008.2 |
| 20260905223033 | 26 | 269 | 1.6 | 0.0 | 0.00 | 0.00 | 0.00 | 73 | 1008.3 |
| 20260905221527 | 26 | 27 | 1.6 | 0.0 | 0.00 | 0.00 | 0.00 | 74 | 1008.2 |
| 20260905220025 | 26 | 47 | 0.0 | 0.0 | 0.00 | 0.00 | 0.00 | 74 | 1008.3 |
| 20260905214524 | 26 | 317 | 0.0 | 0.0 | 0.00 | 0.00 | 0.00 | 76 | 1008.9 |
| 20260905213024 | 26 | 250 | 0.0 | 0.0 | 0.00 | 0.00 | 0.00 | 75 | 1008.9 |
| 20260905211525 | 26 | 243 | 0.0 | 0.0 | 0.00 | 0.00 | 0.00 | 76 | 1009.0 |
| 20260905210023 | 26 | 348 | 1.6 | 0.0 | 0.00 | 0.00 | 0.00 | 78 | 1009.2 |
| 20260905204522 | 25 | 278 | 1.6 | 0.0 | 0.00 | 0.00 | 0.00 | 78 | 1009.0 |
| 20260905203022 | 25 | 304 | 0.0 | 0.0 | 0.00 | 0.00 | 0.00 | 79 | 1009.0 |
| 20260905201522 | 24 | 302 | 0.0 | 0.0 | 0.00 | 0.00 | 0.00 | 80 | 1009.0 |
| 20260905200019 | 24 | 302 | 0.0 | 0.0 | 0.00 | 0.00 | 0.00 | 81 | 1009.4 |
| 20260905194523 | 23 | 302 | 1.6 | 0.0 | 0.00 | 0.00 | 0.00 | 81 | 1009.6 |
| 20260905193022 | 24 | 303 | 1.6 | 0.0 | 0.00 | 0.00 | 0.00 | 81 | 1009.4 |
| 20260905191519 | 24 | 305 | 1.6 | 0.0 | 0.00 | 0.00 | 0.00 | 82 | 1009.3 |
| 20260905190039 | 23 | 301 | 0.0 | 0.0 | 0.00 | 0.00 | 0.00 | 84 | 1008.9 |
| 20260905184518 | 23 | 302 | 0.0 | 0.0 | 0.00 | 0.00 | 0.00 | 87 | 1008.9 |
| 20260905183018 | 22 | 301 | 0.0 | 0.0 | 0.00 | 0.00 | 0.00 | 86 | 1008.9 |
| 20260905181518 | 22 | 298 | 3.2 | 0.0 | 0.00 | 0.00 | 0.00 | 84 | 1009.9 |
| 20260905180019 | 23 | 137 | 3.2 | 0.0 | 0.00 | 0.00 | 0.00 | 77 | 1009.7 |
| 20260905174514 | 28 | 333 | 6.4 | 0.0 | 0.00 | 0.00 | 0.00 | 65 | 1011.2 |
| 20260905173012 | 32 | 336 | 1.6 | 0.0 | 0.00 | 0.00 | 0.00 | 54 | 1009.9 |
| 20260905171512 | 32 | 2 | 1.6 | 0.0 | 0.00 | 0.00 | 0.00 | 58 | 1010.1 |
| 20260905170010 | 33 | 299 | 1.6 | 0.0 | 0.00 | 0.00 | 0.00 | 54 | 1010.4 |
| 20260905164506 | 32 | 325 | 1.6 | 0.0 | 0.00 | 0.00 | 0.00 | 54 | 1010.4 |
| 20260905163008 | 31 | 238 | 3.2 | 0.0 | 0.00 | 0.00 | 0.00 | 56 | 1010.5 |
| 20260905161600 | 31 | 323 | 3.2 | 0.0 | 0.00 | 0.00 | 0.00 | 59 | 1010.6 |
| 20260905160114 | 31 | 330 | 1.6 | 0.0 | 0.00 | 0.00 | 0.00 | 63 | 1011.1 |
| 20260905154553 | 30 | 350 | 3.2 | 0.0 | 0.00 | 0.00 | 0.00 | 64 | 1010.9 |
| 20260905153058 | 29 | 319 | 0.0 | 0.0 | 0.00 | 0.00 | 0.00 | 69 | 1010.8 |
| 20260905151546 | 28 | 238 | 1.6 | 0.0 | 0.00 | 0.00 | 0.00 | 71 | 1010.8 |
| 20260905150045 | 27 | 332 | 1.6 | 0.0 | 0.00 | 0.00 | 0.00 | 73 | 1010.8 |
| 20260905144539 | 26 | 331 | 0.0 | 0.0 | 0.00 | 0.00 | 0.00 | 78 | 1010.9 |
| 20260905143039 | 26 | 279 | 0.0 | 0.0 | 0.00 | 0.00 | 0.00 | 80 | 1011.1 |
| 20260905141534 | 25 | 279 | 1.6 | 0.0 | 0.00 | 0.00 | 0.00 | 82 | 1011.0 |
| 20260905140031 | 25 | 276 | 1.6 | 0.0 | 0.00 | 0.00 | 0.00 | 83 | 1010.9 |
| 20260905134527 | 24 | 280 | 0.0 | 0.0 | 0.00 | 0.00 | 0.00 | 85 | 1011.1 |
| 20260905133031 | 23 | 284 | 0.0 | 0.0 | 0.00 | 0.00 | 0.00 | 87 | 1011.2 |
| 20260905131533 | 23 | 257 | 0.0 | 0.0 | 0.00 | 0.00 | 0.00 | 88 | 1011.3 |
| 20260905130036 | 22 | 165 | 1.6 | 0.0 | 0.00 | 0.00 | 0.00 | 89 | 1011.3 |
| 20260905124524 | 22 | 175 | 0.0 | 0.0 | 0.00 | 0.00 | 0.00 | 91 | 1011.4 |
| 20260905123024 | 22 | 175 | 0.0 | 0.0 | 0.00 | 0.00 | 0.00 | 92 | 1011.5 |
| 20260905121523 | 21 | 175 | 0.0 | 0.0 | 0.00 | 0.00 | 0.00 | 91 | 1011.3 |
| 20260905120022 | 21 | 175 | 0.0 | 0.0 | 0.00 | 0.00 | 0.00 | 91 | 1011.0 |
| 20260905114521 | 21 | 175 | 0.0 | 0.0 | 0.00 | 0.00 | 0.00 | 90 | 1011.0 |
| 20260905113021 | 21 | 175 | 0.0 | 0.0 | 0.00 | 0.00 | 0.00 | 90 | 1011.0 |
| 20260905111534 | 21 | 175 | 0.0 | 0.0 | 0.00 | 0.00 | 0.00 | 90 | 1011.1 |
| 20260905110018 | 21 | 175 | 0.0 | 0.0 | 0.00 | 0.00 | 0.00 | 90 | 1010.7 |
| 20260905104517 | 21 | 175 | 0.0 | 0.0 | 0.00 | 0.00 | 0.00 | 90 | 1010.6 |
| 20260905103017 | 21 | 175 | 0.0 | 0.0 | 0.00 | 0.00 | 0.00 | 90 | 1010.5 |
| 20260905101513 | 21 | 175 | 0.0 | 0.0 | 0.00 | 0.00 | 0.00 | 90 | 1010.3 |
| 20260905100018 | 21 | 175 | 0.0 | 0.0 | 0.00 | 0.00 | 0.00 | 89 | 1010.2 |
| 20260905094513 | 21 | 175 | 0.0 | 0.0 | 0.00 | 0.00 | 0.00 | 89 | 1010.2 |
| 20260905093010 | 21 | 175 | 0.0 | 0.0 | 0.00 | 0.00 | 0.00 | 89 | 1010.2 |
| 20260905091509 | 21 | 175 | 0.0 | 0.0 | 0.00 | 0.00 | 0.00 | 89 | 1010.3 |
| 20260905090007 | 21 | 175 | 0.0 | 0.0 | 0.00 | 0.00 | 0.00 | 89 | 1010.3 |
| 20260905084506 | 21 | 175 | 0.0 | 0.0 | 0.00 | 0.00 | 0.00 | 88 | 1010.4 |
| 20260905083004 | 22 | 175 | 0.0 | 0.0 | 0.00 | 0.00 | 0.00 | 88 | 1010.5 |
| 20260905081503 | 22 | 175 | 0.0 | 0.0 | 0.00 | 0.00 | 0.00 | 88 | 1010.5 |
| 20260905080002 | 22 | 175 | 0.0 | 0.0 | 0.00 | 0.00 | 0.00 | 87 | 1010.6 |
| 20260905074605 | 22 | 175 | 0.0 | 0.0 | 0.00 | 0.00 | 0.00 | 87 | 1010.7 |
| 20260905073105 | 22 | 175 | 0.0 | 0.0 | 0.00 | 0.00 | 0.00 | 88 | 1010.8 |